createdAt,value
2018-05-28T00:00:34.729Z,33.00
2018-05-28T00:01:34.973Z,32.80
2018-05-28T00:02:35.217Z,31.40
2018-05-28T00:03:35.465Z,29.60
2018-05-28T00:04:35.705Z,32.00
2018-05-28T00:05:35.955Z,34.40
2018-05-28T00:06:36.195Z,34.50
2018-05-28T00:07:36.441Z,33.30
2018-05-28T00:08:36.685Z,32.40
2018-05-28T00:09:36.931Z,34.50
2018-05-28T00:10:37.176Z,34.40
2018-05-28T00:11:37.417Z,35.00
2018-05-28T00:12:37.672Z,36.80
2018-05-28T00:13:37.909Z,37.20
2018-05-28T00:14:38.153Z,37.30
2018-05-28T00:15:38.398Z,36.90
2018-05-28T00:16:38.645Z,41.20
2018-05-28T00:17:38.889Z,39.10
2018-05-28T00:18:39.135Z,38.60
2018-05-28T00:19:39.379Z,37.50
2018-05-28T00:20:39.623Z,39.30
2018-05-28T00:21:39.867Z,40.60
2018-05-28T00:22:40.146Z,39.70
2018-05-28T00:23:40.359Z,37.50
2018-05-28T00:24:40.600Z,37.20
2018-05-28T00:25:40.845Z,38.00
2018-05-28T00:26:41.094Z,36.20
2018-05-28T00:27:41.334Z,41.90
2018-05-28T00:28:41.578Z,39.40
2018-05-28T00:29:41.850Z,39.10
2018-05-28T00:30:42.069Z,39.60
2018-05-28T00:31:42.311Z,39.60
2018-05-28T00:32:42.556Z,42.20
2018-05-28T00:33:42.800Z,43.20
2018-05-28T00:34:43.044Z,41.80
2018-05-28T00:35:43.288Z,45.50
2018-05-28T00:36:43.532Z,46.60
2018-05-28T00:37:43.777Z,46.30
2018-05-28T00:38:44.021Z,45.30
2018-05-28T00:39:44.265Z,44.50
2018-05-28T00:40:44.509Z,45.30
2018-05-28T00:41:44.753Z,43.40
2018-05-28T00:42:44.998Z,42.70
2018-05-28T00:43:45.242Z,43.20
2018-05-28T00:44:45.488Z,42.20
2018-05-28T00:45:45.734Z,40.40
2018-05-28T00:46:45.979Z,42.30
2018-05-28T00:47:46.221Z,42.50
2018-05-28T00:48:46.466Z,43.20
2018-05-28T00:49:46.711Z,41.40
2018-05-28T00:50:46.959Z,41.00
2018-05-28T00:51:47.197Z,43.90
2018-05-28T00:52:47.442Z,49.60
2018-05-28T00:53:47.685Z,48.50
2018-05-28T00:54:47.929Z,44.90
2018-05-28T00:55:48.175Z,44.60
2018-05-28T00:56:48.419Z,48.60
2018-05-28T00:57:48.663Z,47.30
2018-05-28T00:58:48.909Z,48.30
2018-05-28T00:59:49.155Z,52.90
2018-05-28T01:00:49.401Z,51.10
2018-05-28T01:01:49.643Z,50.20
2018-05-28T01:02:49.886Z,51.40
2018-05-28T01:03:50.131Z,50.10
2018-05-28T01:04:50.377Z,48.70
2018-05-28T01:05:50.621Z,51.20
2018-05-28T01:06:50.865Z,51.00
2018-05-28T01:07:51.111Z,53.40
2018-05-28T01:08:51.357Z,54.10
2018-05-28T01:09:51.605Z,60.10
2018-05-28T01:10:51.844Z,61.80
2018-05-28T01:11:52.089Z,58.80
2018-05-28T01:12:52.338Z,59.60
2018-05-28T01:13:52.577Z,61.00
2018-05-28T01:14:52.823Z,65.20
2018-05-28T01:15:53.067Z,66.90
2018-05-28T01:16:53.314Z,66.60
2018-05-28T01:17:53.558Z,62.10
2018-05-28T01:18:53.802Z,60.10
2018-05-28T01:19:54.046Z,59.00
2018-05-28T01:20:54.291Z,61.10
2018-05-28T01:21:54.535Z,56.20
2018-05-28T01:22:54.778Z,56.10
2018-05-28T01:23:55.026Z,56.90
2018-05-28T01:24:55.268Z,56.40
2018-05-28T01:25:55.512Z,57.90
2018-05-28T01:26:55.757Z,58.90
2018-05-28T01:27:56.005Z,51.80
2018-05-28T01:28:56.246Z,58.10
2018-05-28T01:29:56.489Z,52.80
2018-05-28T01:30:56.733Z,53.20
2018-05-28T01:31:56.979Z,51.40
2018-05-28T01:32:57.221Z,53.70
2018-05-28T01:33:57.466Z,51.70
2018-05-28T01:34:57.709Z,51.30
2018-05-28T01:35:57.953Z,49.10
2018-05-28T01:36:58.198Z,52.70
2018-05-28T01:37:58.442Z,49.30
2018-05-28T01:38:58.685Z,49.10
2018-05-28T01:39:58.931Z,49.10
2018-05-28T01:40:59.172Z,46.70
2018-05-28T01:41:59.416Z,45.70
2018-05-28T01:42:59.660Z,49.50
2018-05-28T01:43:59.904Z,47.00
2018-05-28T01:45:00.148Z,49.80
2018-05-28T01:46:00.390Z,58.00
2018-05-28T01:47:00.635Z,51.60
2018-05-28T01:48:00.878Z,55.90
2018-05-28T01:49:01.122Z,58.80
2018-05-28T01:50:01.366Z,52.70
2018-05-28T01:51:01.609Z,55.40
2018-05-28T01:52:01.854Z,65.50
2018-05-28T01:53:02.098Z,66.20
2018-05-28T01:54:09.972Z,75.10
2018-05-28T01:55:02.646Z,76.60
2018-05-28T01:56:02.891Z,79.90
2018-05-28T01:57:03.133Z,85.20
2018-05-28T01:58:03.377Z,82.30
2018-05-28T01:59:03.621Z,86.50
2018-05-28T02:00:03.865Z,89.60
2018-05-28T02:01:04.108Z,90.60
2018-05-28T02:02:04.352Z,89.70
2018-05-28T02:03:04.596Z,82.50
2018-05-28T02:04:04.840Z,82.90
2018-05-28T02:05:05.084Z,81.90
2018-05-28T02:06:05.328Z,76.00
2018-05-28T02:07:05.573Z,74.40
2018-05-28T02:08:05.816Z,77.60
2018-05-28T02:09:06.059Z,74.60
2018-05-28T02:10:06.303Z,74.60
2018-05-28T02:11:06.547Z,81.30
2018-05-28T02:12:06.795Z,82.60
2018-05-28T02:13:07.035Z,82.00
2018-05-28T02:14:07.276Z,84.90
2018-05-28T02:15:07.519Z,82.80
2018-05-28T02:16:07.763Z,79.90
2018-05-28T02:17:08.005Z,79.80
2018-05-28T02:18:08.250Z,78.70
2018-05-28T02:19:08.492Z,77.00
2018-05-28T02:20:08.734Z,72.60
2018-05-28T02:21:08.978Z,73.00
2018-05-28T02:22:09.222Z,74.00
2018-05-28T02:23:09.465Z,75.40
2018-05-28T02:24:09.706Z,75.40
2018-05-28T02:25:09.948Z,76.90
2018-05-28T02:26:10.191Z,82.80
2018-05-28T02:27:10.432Z,87.00
2018-05-28T02:28:10.677Z,96.10
2018-05-28T02:29:10.921Z,68.90
2018-05-28T02:30:11.164Z,61.00
2018-05-28T02:31:11.410Z,58.20
2018-05-28T02:32:11.650Z,60.30
2018-05-28T02:33:11.895Z,59.60
2018-05-28T02:34:12.137Z,59.10
2018-05-28T02:35:12.381Z,60.40
2018-05-28T02:36:12.625Z,63.00
2018-05-28T02:37:12.867Z,62.70
2018-05-28T02:38:13.112Z,62.00
2018-05-28T02:39:13.355Z,61.20
2018-05-28T02:40:13.599Z,57.20
2018-05-28T02:41:13.846Z,52.10
2018-05-28T02:42:14.088Z,48.90
2018-05-28T02:43:14.332Z,45.30
2018-05-28T02:44:14.574Z,44.50
2018-05-28T02:45:14.818Z,45.60
2018-05-28T02:46:15.063Z,47.60
2018-05-28T02:47:15.306Z,46.90
2018-05-28T02:48:15.550Z,44.00
2018-05-28T02:49:15.800Z,45.00
2018-05-28T02:50:16.048Z,44.50
2018-05-28T02:51:16.279Z,44.50
2018-05-28T02:52:16.522Z,47.00
2018-05-28T02:53:16.768Z,48.60
2018-05-28T02:54:17.011Z,47.10
2018-05-28T02:55:17.254Z,45.30
2018-05-28T02:56:17.497Z,42.30
2018-05-28T02:57:17.742Z,41.40
2018-05-28T02:58:17.986Z,40.60
2018-05-28T02:59:18.231Z,41.70
2018-05-28T03:00:18.473Z,47.90
2018-05-28T03:01:18.719Z,46.70
2018-05-28T03:02:18.963Z,48.30
2018-05-28T03:03:19.205Z,50.20
2018-05-28T03:04:19.448Z,59.60
2018-05-28T03:05:19.691Z,57.30
2018-05-28T03:06:19.939Z,55.10
2018-05-28T03:07:20.178Z,50.80
2018-05-28T03:08:20.424Z,42.40
2018-05-28T03:09:20.671Z,38.00
2018-05-28T03:10:20.911Z,37.00
2018-05-28T03:11:21.158Z,39.30
2018-05-28T03:12:21.402Z,36.50
2018-05-28T03:13:21.648Z,36.70
2018-05-28T03:14:21.889Z,36.00
2018-05-28T03:15:22.133Z,33.60
2018-05-28T03:16:22.377Z,33.40
2018-05-28T03:17:22.619Z,36.60
2018-05-28T03:18:22.862Z,35.40
2018-05-28T03:19:23.106Z,35.70
2018-05-28T03:20:23.352Z,47.70
2018-05-28T03:21:23.594Z,48.20
2018-05-28T03:22:23.839Z,42.00
2018-05-28T03:23:24.083Z,48.80
2018-05-28T03:24:24.327Z,49.70
2018-05-28T03:25:24.573Z,55.30
2018-05-28T03:26:24.811Z,52.80
2018-05-28T03:27:25.056Z,50.60
2018-05-28T03:28:25.299Z,45.90
2018-05-28T03:29:25.547Z,45.90
2018-05-28T03:30:25.787Z,40.30
2018-05-28T03:31:26.032Z,39.80
2018-05-28T03:32:26.279Z,39.70
2018-05-28T03:33:26.518Z,40.30
2018-05-28T03:34:26.765Z,64.30
2018-05-28T03:35:27.008Z,73.20
2018-05-28T03:36:27.252Z,80.00
2018-05-28T03:37:27.497Z,85.70
2018-05-28T03:38:27.741Z,80.70
2018-05-28T03:39:27.984Z,82.70
2018-05-28T03:40:28.226Z,71.80
2018-05-28T03:41:28.476Z,70.80
2018-05-28T03:42:28.713Z,70.10
2018-05-28T03:43:28.961Z,91.40
2018-05-28T03:44:29.201Z,84.60
2018-05-28T03:45:29.446Z,89.20
2018-05-28T03:46:29.690Z,91.30
2018-05-28T03:47:29.933Z,70.20
2018-05-28T03:48:30.177Z,62.20
2018-05-28T03:49:30.423Z,76.10
2018-05-28T03:50:30.665Z,90.70
2018-05-28T03:51:30.908Z,71.50
2018-05-28T03:52:31.154Z,74.50
2018-05-28T03:53:31.399Z,71.10
2018-05-28T03:54:31.642Z,66.70
2018-05-28T03:55:31.885Z,65.60
2018-05-28T03:56:32.130Z,68.00
2018-05-28T03:57:32.380Z,60.90
2018-05-28T03:58:32.618Z,52.20
2018-05-28T03:59:32.863Z,55.90
2018-05-28T04:00:40.731Z,56.30
2018-05-28T04:01:33.404Z,62.20
2018-05-28T04:02:33.646Z,56.80
2018-05-28T04:03:33.891Z,54.10
2018-05-28T04:04:34.134Z,59.20
2018-05-28T04:05:34.380Z,51.90
2018-05-28T04:06:34.624Z,50.60
2018-05-28T04:07:34.868Z,54.00
2018-05-28T04:08:35.115Z,53.50
2018-05-28T04:09:35.358Z,54.40
2018-05-28T04:10:35.604Z,50.00
2018-05-28T04:11:35.848Z,51.60
2018-05-28T04:12:36.091Z,49.00
2018-05-28T04:13:36.336Z,48.20
2018-05-28T04:14:36.583Z,47.60
2018-05-28T04:15:36.826Z,48.90
2018-05-28T04:16:37.071Z,48.30
2018-05-28T04:17:37.314Z,47.80
2018-05-28T04:18:37.561Z,46.70
2018-05-28T04:19:37.803Z,48.40
2018-05-28T04:20:38.049Z,43.30
2018-05-28T04:21:38.295Z,42.40
2018-05-28T04:22:38.540Z,42.00
2018-05-28T04:23:38.784Z,40.30
2018-05-28T04:24:39.030Z,34.90
2018-05-28T04:25:39.277Z,31.90
2018-05-28T04:26:39.518Z,29.50
2018-05-28T04:27:39.764Z,37.70
2018-05-28T04:28:40.009Z,34.80
2018-05-28T04:29:40.257Z,35.40
2018-05-28T04:30:40.500Z,31.90
2018-05-28T04:31:40.747Z,31.70
2018-05-28T04:32:40.994Z,31.40
2018-05-28T04:33:41.239Z,32.70
2018-05-28T04:34:41.485Z,31.10
2018-05-28T04:35:41.730Z,31.80
2018-05-28T04:36:41.979Z,31.60
2018-05-28T04:37:42.219Z,32.10
2018-05-28T04:38:42.467Z,31.10
2018-05-28T04:39:42.710Z,32.60
2018-05-28T04:40:42.958Z,31.90
2018-05-28T04:41:43.204Z,29.50
2018-05-28T04:42:43.450Z,29.60
2018-05-28T04:43:43.736Z,30.20
2018-05-28T04:44:43.941Z,31.70
2018-05-28T04:45:44.187Z,30.10
2018-05-28T04:46:44.434Z,29.50
2018-05-28T04:47:44.678Z,30.40
2018-05-28T04:48:44.925Z,30.50
2018-05-28T04:49:45.170Z,32.50
2018-05-28T04:50:45.421Z,33.30
2018-05-28T04:51:45.661Z,32.30
2018-05-28T04:52:45.907Z,35.10
2018-05-28T04:53:46.155Z,31.80
2018-05-28T04:54:46.404Z,31.70
2018-05-28T04:55:46.647Z,30.80
2018-05-28T04:56:46.894Z,29.70
2018-05-28T04:57:47.139Z,30.70
2018-05-28T04:58:47.387Z,30.40
2018-05-28T04:59:47.633Z,31.10
2018-05-28T05:00:47.878Z,29.80
2018-05-28T05:01:48.125Z,28.90
2018-05-28T05:02:48.372Z,30.60
2018-05-28T05:03:48.647Z,29.40
2018-05-28T05:04:48.864Z,29.00
2018-05-28T05:05:49.110Z,29.60
2018-05-28T05:06:49.361Z,29.20
2018-05-28T05:07:49.603Z,29.20
2018-05-28T05:08:49.849Z,29.50
2018-05-28T05:09:50.095Z,29.00
2018-05-28T05:10:50.342Z,29.00
2018-05-28T05:11:50.588Z,28.80
2018-05-28T05:12:50.835Z,29.00
2018-05-28T05:13:51.080Z,30.40
2018-05-28T05:14:51.324Z,29.20
2018-05-28T05:15:51.570Z,30.30
2018-05-28T05:16:51.822Z,30.20
2018-05-28T05:17:52.063Z,28.10
2018-05-28T05:18:52.310Z,28.50
2018-05-28T05:19:52.558Z,29.60
2018-05-28T05:20:52.802Z,29.70
2018-05-28T05:21:53.048Z,25.80
2018-05-28T05:22:53.294Z,26.20
2018-05-28T05:23:53.540Z,25.70
2018-05-28T05:24:53.786Z,27.40
2018-05-28T05:25:54.031Z,24.50
2018-05-28T05:26:54.277Z,23.30
2018-05-28T05:27:54.561Z,24.60
2018-05-28T05:28:54.769Z,24.90
2018-05-28T05:29:55.016Z,23.10
2018-05-28T05:30:55.263Z,22.50
2018-05-28T05:31:55.510Z,22.10
2018-05-28T05:32:55.758Z,23.10
2018-05-28T05:33:56.000Z,21.40
2018-05-28T05:34:56.245Z,23.80
2018-05-28T05:35:56.492Z,22.90
2018-05-28T05:36:56.738Z,23.90
2018-05-28T05:37:56.983Z,23.30
2018-05-28T05:38:57.232Z,23.70
2018-05-28T05:39:57.479Z,24.30
2018-05-28T05:40:57.724Z,21.80
2018-05-28T05:41:57.972Z,22.20
2018-05-28T05:42:58.218Z,22.70
2018-05-28T05:43:58.465Z,21.50
2018-05-28T05:44:58.712Z,21.80
2018-05-28T05:45:58.963Z,22.80
2018-05-28T05:46:59.206Z,22.10
2018-05-28T05:47:59.452Z,23.00
2018-05-28T05:48:59.699Z,22.60
2018-05-28T05:49:59.949Z,22.90
2018-05-28T05:51:00.192Z,23.60
2018-05-28T05:52:00.438Z,25.40
2018-05-28T05:53:00.683Z,27.10
2018-05-28T05:54:00.930Z,25.00
2018-05-28T05:55:01.179Z,26.40
2018-05-28T05:56:01.424Z,25.50
2018-05-28T05:57:01.669Z,25.00
2018-05-28T05:58:01.915Z,25.90
2018-05-28T05:59:02.164Z,26.80
2018-05-28T06:00:02.428Z,27.90
2018-05-28T06:01:02.654Z,27.30
2018-05-28T06:02:02.901Z,29.40
2018-05-28T06:03:03.147Z,30.70
2018-05-28T06:04:03.394Z,30.60
2018-05-28T06:05:03.643Z,30.80
2018-05-28T06:06:03.887Z,29.80
2018-05-28T06:07:04.133Z,30.50
2018-05-28T06:08:04.381Z,27.40
2018-05-28T06:09:04.626Z,26.80
2018-05-28T06:10:04.874Z,25.50
2018-05-28T06:11:05.176Z,24.90
2018-05-28T06:12:05.366Z,26.90
2018-05-28T06:13:05.612Z,24.70
2018-05-28T06:14:05.860Z,24.50
2018-05-28T06:15:06.110Z,24.00
2018-05-28T06:16:06.356Z,20.80
2018-05-28T06:17:06.601Z,22.10
2018-05-28T06:18:06.847Z,23.60
2018-05-28T06:19:07.095Z,22.40
2018-05-28T06:20:07.346Z,20.40
2018-05-28T06:21:07.590Z,22.10
2018-05-28T06:22:07.838Z,22.00
2018-05-28T06:23:08.087Z,20.70
2018-05-28T06:24:08.336Z,19.60
2018-05-28T06:25:08.577Z,20.10
2018-05-28T06:26:08.823Z,20.50
2018-05-28T06:27:09.071Z,18.30
2018-05-28T06:28:09.317Z,16.90
2018-05-28T06:29:09.566Z,16.80
2018-05-28T06:30:09.814Z,16.60
2018-05-28T06:31:10.063Z,15.40
2018-05-28T06:32:10.310Z,16.70
2018-05-28T06:33:10.559Z,18.50
2018-05-28T06:34:10.860Z,17.70
2018-05-28T06:35:11.057Z,16.50
2018-05-28T06:36:11.302Z,16.40
2018-05-28T06:37:11.550Z,16.90
2018-05-28T06:38:11.799Z,15.70
2018-05-28T06:39:12.046Z,15.70
2018-05-28T06:40:12.294Z,16.30
2018-05-28T06:41:12.543Z,16.00
2018-05-28T06:42:12.793Z,16.20
2018-05-28T06:43:13.041Z,15.10
2018-05-28T06:44:13.289Z,15.10
2018-05-28T06:45:13.537Z,15.50
2018-05-28T06:46:13.790Z,14.40
2018-05-28T06:47:14.034Z,14.00
2018-05-28T06:48:14.282Z,14.40
2018-05-28T06:49:14.531Z,15.20
2018-05-28T06:50:14.780Z,14.80
2018-05-28T06:51:15.027Z,13.20
2018-05-28T06:52:15.275Z,13.10
2018-05-28T06:53:15.526Z,13.60
2018-05-28T06:54:15.771Z,13.30
2018-05-28T06:55:16.021Z,13.30
2018-05-28T06:56:16.269Z,12.80
2018-05-28T06:57:16.517Z,12.80
2018-05-28T06:58:16.765Z,12.90
2018-05-28T06:59:17.015Z,13.30
2018-05-28T07:00:17.263Z,13.60
2018-05-28T07:01:17.511Z,12.30
2018-05-28T07:02:17.760Z,11.50
2018-05-28T07:03:18.010Z,12.70
2018-05-28T07:04:18.258Z,13.20
2018-05-28T07:05:18.507Z,13.10
2018-05-28T07:06:18.755Z,12.80
2018-05-28T07:07:19.004Z,12.00
2018-05-28T07:08:19.252Z,13.60
2018-05-28T07:09:19.501Z,12.90
2018-05-28T07:10:19.749Z,12.30
2018-05-28T07:11:19.997Z,12.50
2018-05-28T07:12:20.247Z,12.60
2018-05-28T07:13:20.498Z,12.60
2018-05-28T07:14:20.744Z,13.20
2018-05-28T07:15:20.993Z,11.60
2018-05-28T07:16:21.243Z,10.30
2018-05-28T07:17:21.495Z,9.70
2018-05-28T07:18:21.744Z,8.50
2018-05-28T07:19:21.992Z,9.80
2018-05-28T07:20:22.242Z,10.10
2018-05-28T07:21:22.493Z,8.30
2018-05-28T07:22:22.745Z,8.30
2018-05-28T07:23:22.994Z,8.80
2018-05-28T07:24:23.245Z,8.40
2018-05-28T07:25:23.495Z,8.60
2018-05-28T07:26:23.744Z,9.50
2018-05-28T07:27:23.995Z,9.20
2018-05-28T07:28:24.245Z,8.10
2018-05-28T07:29:24.543Z,8.20
2018-05-28T07:30:24.750Z,7.70
2018-05-28T07:31:25.004Z,7.90
2018-05-28T07:32:25.252Z,8.10
2018-05-28T07:33:25.506Z,7.70
2018-05-28T07:34:25.759Z,8.00
2018-05-28T07:35:26.012Z,8.60
2018-05-28T07:36:26.295Z,8.00
2018-05-28T07:37:26.517Z,8.30
2018-05-28T07:38:26.773Z,7.50
2018-05-28T07:39:27.025Z,8.00
2018-05-28T07:40:27.279Z,7.70
2018-05-28T07:41:27.532Z,7.50
2018-05-28T07:42:27.785Z,7.90
2018-05-28T07:43:28.040Z,7.80
2018-05-28T07:44:28.292Z,7.20
2018-05-28T07:45:28.545Z,7.30
2018-05-28T07:46:28.798Z,7.60
2018-05-28T07:47:29.053Z,7.30
2018-05-28T07:48:29.307Z,7.00
2018-05-28T07:49:29.560Z,7.10
2018-05-28T07:50:29.815Z,7.40
2018-05-28T07:51:30.070Z,6.50
2018-05-28T07:52:30.323Z,7.00
2018-05-28T07:53:30.580Z,7.20
2018-05-28T07:54:30.835Z,7.80
2018-05-28T07:55:31.112Z,7.30
2018-05-28T07:56:31.342Z,7.30
2018-05-28T07:57:31.596Z,7.10
2018-05-28T07:58:31.851Z,6.90
2018-05-28T07:59:32.106Z,6.70
2018-05-28T08:00:32.360Z,6.50
2018-05-28T08:01:32.617Z,6.10
2018-05-28T08:02:32.872Z,6.00
2018-05-28T08:03:33.129Z,6.90
2018-05-28T08:04:33.380Z,6.90
2018-05-28T08:05:33.635Z,8.00
2018-05-28T08:06:33.887Z,8.00
2018-05-28T08:07:34.141Z,7.20
2018-05-28T08:08:34.397Z,7.30
2018-05-28T08:09:34.650Z,7.00
2018-05-28T08:10:34.910Z,6.40
2018-05-28T08:11:35.162Z,6.20
2018-05-28T08:12:42.583Z,6.10
2018-05-28T08:13:35.726Z,5.40
2018-05-28T08:14:35.980Z,6.50
2018-05-28T08:15:36.242Z,6.50
2018-05-28T08:16:36.500Z,6.60
2018-05-28T08:17:36.748Z,6.40
2018-05-28T08:18:37.002Z,6.50
2018-05-28T08:19:37.259Z,6.80
2018-05-28T08:20:37.516Z,6.50
2018-05-28T08:21:37.771Z,6.00
2018-05-28T08:22:38.059Z,6.10
2018-05-28T08:23:38.285Z,5.90
2018-05-28T08:24:38.542Z,5.60
2018-05-28T08:25:38.798Z,6.20
2018-05-28T08:26:39.055Z,5.90
2018-05-28T08:27:39.309Z,6.10
2018-05-28T08:28:39.597Z,6.00
2018-05-28T08:29:39.824Z,6.10
2018-05-28T08:30:40.083Z,5.90
2018-05-28T08:31:40.340Z,6.00
2018-05-28T08:32:40.597Z,5.20
2018-05-28T08:33:40.854Z,5.80
2018-05-28T08:34:41.112Z,5.50
2018-05-28T08:35:41.369Z,5.50
2018-05-28T08:36:41.626Z,5.40
2018-05-28T08:37:41.884Z,5.70
2018-05-28T08:38:42.139Z,5.60
2018-05-28T08:39:42.400Z,5.50
2018-05-28T08:40:42.655Z,5.80
2018-05-28T08:41:42.913Z,5.30
2018-05-28T08:42:43.170Z,5.80
2018-05-28T08:43:43.428Z,5.50
2018-05-28T08:44:43.686Z,5.00
2018-05-28T08:45:43.945Z,5.20
2018-05-28T08:46:44.212Z,5.30
2018-05-28T08:47:44.463Z,5.20
2018-05-28T08:48:44.721Z,5.10
2018-05-28T08:49:44.978Z,4.70
2018-05-28T08:50:45.236Z,4.90
2018-05-28T08:51:45.497Z,5.30
2018-05-28T08:52:45.752Z,5.00
2018-05-28T08:53:46.010Z,5.30
2018-05-28T08:54:46.269Z,4.60
2018-05-28T08:55:46.528Z,5.00
2018-05-28T08:56:46.786Z,5.00
2018-05-28T08:57:47.051Z,5.10
2018-05-28T08:58:47.305Z,4.60
2018-05-28T08:59:47.562Z,4.70
2018-05-28T09:00:47.822Z,4.60
2018-05-28T09:01:48.079Z,4.20
2018-05-28T09:02:48.375Z,4.30
2018-05-28T09:03:48.598Z,4.40
2018-05-28T09:04:48.855Z,4.50
2018-05-28T09:05:49.116Z,4.70
2018-05-28T09:06:49.377Z,4.10
2018-05-28T09:07:49.637Z,4.70
2018-05-28T09:08:49.894Z,4.60
2018-05-28T09:09:50.152Z,4.60
2018-05-28T09:10:50.415Z,4.70
2018-05-28T09:11:50.669Z,4.90
2018-05-28T09:12:50.929Z,4.90
2018-05-28T09:13:51.190Z,5.50
2018-05-28T09:14:51.450Z,4.70
2018-05-28T09:15:51.709Z,4.30
2018-05-28T09:16:51.970Z,3.80
2018-05-28T09:17:52.230Z,3.80
2018-05-28T09:18:52.488Z,4.00
2018-05-28T09:19:52.748Z,4.00
2018-05-28T09:20:53.005Z,4.00
2018-05-28T09:21:53.264Z,3.80
2018-05-28T09:22:53.530Z,3.60
2018-05-28T09:23:53.783Z,3.60
2018-05-28T09:24:54.041Z,4.00
2018-05-28T09:25:54.300Z,3.80
2018-05-28T09:26:54.562Z,4.40
2018-05-28T09:27:54.817Z,3.70
2018-05-28T09:28:55.078Z,3.90
2018-05-28T09:29:55.336Z,4.10
2018-05-28T09:30:55.592Z,3.40
2018-05-28T09:31:55.848Z,4.00
2018-05-28T09:32:56.115Z,4.40
2018-05-28T09:33:56.365Z,4.30
2018-05-28T09:34:56.621Z,4.00
2018-05-28T09:35:56.885Z,3.70
2018-05-28T09:36:57.140Z,4.10
2018-05-28T09:37:57.399Z,3.70
2018-05-28T09:38:57.653Z,3.80
2018-05-28T09:39:57.909Z,3.90
2018-05-28T09:40:58.166Z,3.40
2018-05-28T09:41:58.422Z,4.20
2018-05-28T09:42:58.682Z,3.70
2018-05-28T09:43:58.939Z,4.00
2018-05-28T09:44:59.196Z,4.00
2018-05-28T09:45:59.451Z,3.50
2018-05-28T09:46:59.853Z,3.70
2018-05-28T09:47:59.965Z,3.80
2018-05-28T09:49:00.220Z,3.40
2018-05-28T09:50:00.481Z,3.30
2018-05-28T09:51:00.735Z,3.40
2018-05-28T09:52:00.994Z,3.80
2018-05-28T09:53:01.251Z,3.60
2018-05-28T09:54:01.504Z,3.90
2018-05-28T09:55:01.763Z,3.60
2018-05-28T09:56:02.017Z,3.60
2018-05-28T09:57:02.273Z,3.60
2018-05-28T09:58:02.529Z,3.70
2018-05-28T09:59:02.789Z,3.40
2018-05-28T10:00:03.046Z,3.60
2018-05-28T10:01:03.303Z,3.20
2018-05-28T10:02:03.559Z,3.70
2018-05-28T10:03:03.818Z,3.50
2018-05-28T10:04:04.074Z,3.40
2018-05-28T10:05:04.332Z,3.40
2018-05-28T10:06:04.589Z,3.70
2018-05-28T10:07:04.847Z,3.80
2018-05-28T10:08:05.104Z,3.90
2018-05-28T10:09:05.362Z,3.40
2018-05-28T10:10:05.625Z,3.00
2018-05-28T10:11:05.880Z,3.30
2018-05-28T10:12:06.140Z,3.40
2018-05-28T10:13:06.418Z,3.50
2018-05-28T10:14:06.656Z,3.00
2018-05-28T10:15:06.915Z,3.30
2018-05-28T10:16:07.174Z,2.90
2018-05-28T10:17:07.435Z,2.70
2018-05-28T10:18:07.695Z,3.10
2018-05-28T10:19:07.952Z,3.10
2018-05-28T10:20:08.213Z,2.80
2018-05-28T10:21:08.474Z,3.00
2018-05-28T10:22:08.735Z,2.80
2018-05-28T10:23:08.997Z,2.70
2018-05-28T10:24:09.260Z,2.50
2018-05-28T10:25:09.524Z,2.20
2018-05-28T10:26:09.786Z,3.70
2018-05-28T10:27:10.051Z,3.40
2018-05-28T10:28:10.312Z,2.50
2018-05-28T10:29:10.576Z,2.20
2018-05-28T10:30:10.839Z,2.60
2018-05-28T10:31:11.145Z,2.30
2018-05-28T10:32:11.360Z,2.40
2018-05-28T10:33:11.624Z,2.10
2018-05-28T10:34:11.882Z,2.10
2018-05-28T10:35:12.143Z,2.20
2018-05-28T10:36:12.410Z,2.10
2018-05-28T10:37:12.667Z,2.10
2018-05-28T10:38:12.926Z,2.20
2018-05-28T10:39:13.189Z,2.10
2018-05-28T10:40:13.451Z,1.80
2018-05-28T10:41:13.713Z,1.80
2018-05-28T10:42:13.973Z,2.00
2018-05-28T10:43:14.234Z,2.10
2018-05-28T10:44:14.494Z,1.80
2018-05-28T10:45:14.754Z,1.80
2018-05-28T10:46:15.047Z,1.90
2018-05-28T10:47:15.277Z,1.70
2018-05-28T10:48:15.535Z,2.10
2018-05-28T10:49:15.795Z,2.10
2018-05-28T10:50:16.056Z,2.00
2018-05-28T10:51:16.319Z,2.10
2018-05-28T10:52:16.658Z,2.10
2018-05-28T10:53:16.841Z,2.10
2018-05-28T10:54:17.109Z,1.80
2018-05-28T10:55:17.365Z,2.20
2018-05-28T10:56:17.632Z,2.40
2018-05-28T10:57:17.887Z,2.40
2018-05-28T10:58:18.147Z,2.30
2018-05-28T10:59:18.405Z,2.30
2018-05-28T11:00:18.665Z,2.20
2018-05-28T11:01:18.925Z,2.70
2018-05-28T11:02:19.185Z,2.60
2018-05-28T11:03:19.443Z,2.30
2018-05-28T11:04:19.706Z,2.40
2018-05-28T11:05:19.994Z,2.30
2018-05-28T11:06:20.227Z,2.50
2018-05-28T11:07:20.489Z,2.30
2018-05-28T11:08:20.748Z,2.30
2018-05-28T11:09:21.004Z,2.40
2018-05-28T11:10:21.375Z,2.20
2018-05-28T11:11:21.641Z,2.30
2018-05-28T11:12:21.900Z,1.90
2018-05-28T11:13:22.161Z,1.80
2018-05-28T11:14:22.422Z,1.90
2018-05-28T11:15:22.732Z,2.30
2018-05-28T11:16:22.993Z,1.80
2018-05-28T11:17:23.276Z,2.10
2018-05-28T11:18:23.540Z,2.10
2018-05-28T11:19:23.795Z,2.10
2018-05-28T11:20:24.066Z,1.90
2018-05-28T11:21:24.331Z,1.90
2018-05-28T11:22:24.590Z,2.00
2018-05-28T11:23:24.850Z,1.90
2018-05-28T11:24:25.116Z,2.10
2018-05-28T11:25:25.426Z,1.80
2018-05-28T11:26:25.676Z,1.90
2018-05-28T11:27:25.936Z,1.80
2018-05-28T11:28:26.198Z,2.00
2018-05-28T11:29:26.487Z,1.90
2018-05-28T11:30:26.754Z,1.80
2018-05-28T11:31:27.020Z,1.80
2018-05-28T11:32:27.279Z,2.20
2018-05-28T11:33:27.539Z,2.10
2018-05-28T11:34:27.805Z,2.10
2018-05-28T11:35:28.086Z,1.70
2018-05-28T11:36:28.400Z,2.00
2018-05-28T11:37:28.665Z,2.10
2018-05-28T11:38:28.952Z,1.90
2018-05-28T11:39:29.215Z,2.00
2018-05-28T11:40:29.476Z,2.80
2018-05-28T11:41:29.817Z,2.10
2018-05-28T11:42:30.079Z,1.80
2018-05-28T11:43:30.349Z,1.90
2018-05-28T11:44:30.627Z,2.00
2018-05-28T11:45:30.894Z,1.70
2018-05-28T11:46:31.239Z,1.80
2018-05-28T11:47:31.437Z,1.90
2018-05-28T11:48:31.760Z,1.80
2018-05-28T11:49:32.026Z,1.90
2018-05-28T11:50:32.284Z,1.90
2018-05-28T11:51:32.537Z,1.60
2018-05-28T11:52:32.854Z,1.70
2018-05-28T11:53:33.049Z,1.60
2018-05-28T11:54:33.312Z,2.00
2018-05-28T11:55:33.573Z,1.90
2018-05-28T11:56:33.860Z,1.70
2018-05-28T11:57:34.169Z,1.60
2018-05-28T11:58:34.585Z,2.00
2018-05-28T11:59:34.904Z,1.80
2018-05-28T12:00:35.243Z,1.80
2018-05-28T12:01:35.478Z,1.80
2018-05-28T12:02:35.729Z,1.60
2018-05-28T12:03:36.017Z,2.00
2018-05-28T12:04:36.285Z,1.70
2018-05-28T12:05:36.562Z,1.60
2018-05-28T12:06:36.821Z,1.40
2018-05-28T12:07:37.135Z,1.40
2018-05-28T12:08:37.405Z,1.60
2018-05-28T12:09:37.636Z,1.90
2018-05-28T12:10:37.898Z,1.80
2018-05-28T12:11:38.276Z,1.90
2018-05-28T12:12:38.661Z,1.70
2018-05-28T12:13:38.968Z,2.00
2018-05-28T12:14:39.251Z,2.00
2018-05-28T12:15:39.533Z,2.00
2018-05-28T12:16:39.785Z,1.80
2018-05-28T12:17:40.090Z,2.00
2018-05-28T12:18:40.347Z,2.00
2018-05-28T12:19:40.637Z,2.00
2018-05-28T12:20:40.919Z,2.00
2018-05-28T12:21:41.187Z,1.90
2018-05-28T12:22:41.504Z,2.00
2018-05-28T12:23:41.768Z,2.10
2018-05-28T12:24:42.027Z,2.10
2018-05-28T12:25:42.289Z,2.50
2018-05-28T12:26:42.549Z,1.90
2018-05-28T12:27:42.809Z,2.30
2018-05-28T12:28:43.081Z,2.40
2018-05-28T12:29:43.331Z,2.50
2018-05-28T12:30:43.589Z,2.40
2018-05-28T12:31:43.850Z,2.40
2018-05-28T12:32:44.109Z,2.00
2018-05-28T12:33:44.367Z,2.30
2018-05-28T12:34:44.627Z,2.60
2018-05-28T12:35:44.890Z,2.20
2018-05-28T12:36:45.146Z,2.10
2018-05-28T12:37:45.408Z,2.40
2018-05-28T12:38:45.674Z,2.70
2018-05-28T12:39:45.928Z,2.50
2018-05-28T12:40:46.193Z,2.50
2018-05-28T12:41:46.456Z,2.40
2018-05-28T12:42:54.342Z,2.70
2018-05-28T12:43:47.034Z,2.40
2018-05-28T12:44:47.289Z,2.30
2018-05-28T12:45:47.551Z,2.50
2018-05-28T12:46:47.816Z,2.50
2018-05-28T12:47:48.070Z,2.00
2018-05-28T12:48:48.331Z,2.20
2018-05-28T12:49:48.593Z,2.40
2018-05-28T12:50:48.852Z,2.30
2018-05-28T12:51:49.110Z,2.30
2018-05-28T12:52:49.376Z,2.30
2018-05-28T12:53:49.638Z,2.60
2018-05-28T12:54:49.901Z,2.30
2018-05-28T12:55:50.163Z,2.40
2018-05-28T12:56:50.424Z,2.50
2018-05-28T12:57:50.686Z,2.10
2018-05-28T12:58:50.947Z,2.20
2018-05-28T12:59:51.209Z,2.00
2018-05-28T13:00:51.472Z,2.20
2018-05-28T13:01:51.733Z,2.40
2018-05-28T13:02:51.993Z,2.40
2018-05-28T13:03:52.257Z,2.60
2018-05-28T13:04:52.519Z,2.20
2018-05-28T13:05:52.782Z,2.50
2018-05-28T13:06:53.043Z,2.30